Time;durP1;ratioP1;P1;durP2;ratioP2;P2;SDS_P1;SDS_P2;PMS_P1;PMS_P2;Temp;Humidity;BMP_temperature;BMP_pressure;BME280_temperature;BME280_humidity;BME280_pressure;Samples;Min_cycle;Max_cycle;Signal;HPM_P1;HPM_P2
2022/11/07 00:01:17;;;;;;;5.70;3.50;;;;;;;1.42;100.00;101029.20;1621394;88;21059;-74
2022/11/07 00:03:45;;;;;;;5.47;3.45;;;;;;;1.42;100.00;101019.87;1611115;88;21540;-73
2022/11/07 00:06:13;;;;;;;4.03;2.93;;;;;;;1.43;100.00;101018.91;1654364;86;21094;-73
2022/11/07 00:08:40;;;;;;;6.73;3.40;;;;;;;1.44;100.00;101017.13;1656681;87;21576;-73
2022/11/07 00:11:08;;;;;;;4.47;3.40;;;;;;;1.44;100.00;101015.31;1657176;87;21058;-73
2022/11/07 00:13:34;;;;;;;5.10;3.07;;;;;;;1.47;100.00;101015.59;1650352;87;21039;-73
2022/11/07 00:16:06;;;;;;;5.73;3.40;;;;;;;1.46;100.00;101016.55;1656358;87;21090;-73
2022/11/07 00:18:33;;;;;;;7.33;3.53;;;;;;;1.46;100.00;101017.41;1565418;91;21114;-73
2022/11/07 00:21:08;;;;;;;4.77;3.50;;;;;;;1.47;100.00;101013.80;1561441;90;21079;-73
2022/11/07 00:23:39;;;;;;;5.40;4.00;;;;;;;1.47;100.00;101015.14;1561624;91;21119;-74
2022/11/07 00:26:11;;;;;;;5.53;3.40;;;;;;;1.48;100.00;101018.17;1561607;92;21147;-74
2022/11/07 00:28:40;;;;;;;6.03;3.23;;;;;;;1.49;100.00;101015.91;1561653;92;21578;-74
2022/11/07 00:31:09;;;;;;;4.40;3.13;;;;;;;1.48;100.00;101009.33;1561508;92;21165;-74
2022/11/07 00:33:37;;;;;;;4.33;3.10;;;;;;;1.47;100.00;101003.14;1561557;92;21083;-73
2022/11/07 00:36:07;;;;;;;5.47;3.50;;;;;;;1.48;100.00;101014.66;1561446;92;21584;-73
2022/11/07 00:38:35;;;;;;;6.60;3.60;;;;;;;1.50;100.00;101016.27;1559996;92;21122;-73
2022/11/07 00:41:05;;;;;;;7.17;3.77;;;;;;;1.51;100.00;101014.00;1561485;92;21128;-74
2022/11/07 00:43:32;;;;;;;6.93;3.90;;;;;;;1.54;100.00;101018.77;1561483;92;21130;-73
2022/11/07 00:46:03;;;;;;;7.87;4.20;;;;;;;1.55;100.00;101019.17;1577585;89;21050;-72
2022/11/07 00:48:31;;;;;;;4.07;2.90;;;;;;;1.55;100.00;101008.50;1587618;90;21130;-74
2022/11/07 00:51:18;;;;;;;5.10;3.47;;;;;;;1.55;100.00;101008.50;1587478;90;21423;-74
2022/11/07 00:53:46;;;;;;;4.40;3.30;;;;;;;1.57;100.00;101002.12;1596315;88;21071;-74
2022/11/07 00:56:16;;;;;;;9.47;3.90;;;;;;;1.57;100.00;101007.94;1590208;88;21112;-72
2022/11/07 00:58:45;;;;;;;3.87;2.83;;;;;;;1.56;100.00;100999.54;1598266;90;21037;-74
2022/11/07 01:01:21;;;;;;;5.07;3.17;;;;;;;1.57;100.00;101001.27;1625789;88;21125;-73
2022/11/07 01:06:35;;;;;;;5.43;3.33;;;;;;;1.59;100.00;100988.70;1632949;87;21551;-72
2022/11/07 01:09:04;;;;;;;5.07;3.60;;;;;;;1.60;100.00;100989.95;1632811;87;21106;-73
2022/11/07 01:11:35;;;;;;;4.73;3.20;;;;;;;1.63;100.00;100990.23;1632739;87;21053;-73
2022/11/07 01:14:01;;;;;;;5.87;3.40;;;;;;;1.65;100.00;100987.03;1632487;87;21054;-74
2022/11/07 01:16:29;;;;;;;6.13;4.03;;;;;;;1.66;100.00;100982.06;1658467;86;21038;-73
2022/11/07 01:18:56;;;;;;;7.07;3.87;;;;;;;1.67;100.00;100986.45;1659418;86;21081;-74
2022/11/07 01:21:24;;;;;;;7.03;4.07;;;;;;;1.66;100.00;100983.39;1686184;83;21524;-73
2022/11/07 01:23:50;;;;;;;6.80;3.60;;;;;;;1.65;100.00;100979.03;1734890;83;21488;-73
2022/11/07 01:26:19;;;;;;;6.13;3.57;;;;;;;1.62;100.00;100977.87;1735203;82;21043;-74
2022/11/07 01:28:45;;;;;;;14.50;3.90;;;;;;;1.63;100.00;100979.56;1735196;83;21066;-74
2022/11/07 01:31:15;;;;;;;9.40;3.83;;;;;;;1.59;100.00;100972.22;1735426;82;21027;-74
2022/11/07 01:33:42;;;;;;;7.30;3.70;;;;;;;1.57;100.00;100968.80;1735139;83;21055;-73
2022/11/07 01:36:14;;;;;;;8.33;3.40;;;;;;;1.55;100.00;100968.03;1735254;83;21040;-74
2022/11/07 01:38:44;;;;;;;4.87;3.40;;;;;;;1.55;100.00;100967.19;1735270;83;21099;-75
2022/11/07 01:41:20;;;;;;;6.80;3.80;;;;;;;1.57;100.00;100966.61;1735160;83;21560;-72
2022/11/07 01:44:09;;;;;;;7.40;3.90;;;;;;;1.58;100.00;100963.02;1735311;83;21027;-75
2022/11/07 01:46:42;;;;;;;8.70;3.90;;;;;;;1.57;100.00;100954.14;1735135;83;21039;-73
2022/11/07 01:49:18;;;;;;;;;;;;;;;1.56;100.00;100952.89;1709335;84;21039;-74
2022/11/07 01:52:13;;;;;;;6.90;4.03;;;;;;;1.53;100.00;100947.28;1677084;85;20109;-74
2022/11/07 01:54:48;;;;;;;6.90;3.87;;;;;;;1.49;100.00;100951.08;1677090;86;21053;-76
2022/11/07 01:57:23;;;;;;;4.00;3.13;;;;;;;1.44;100.00;100958.48;1672857;85;21057;-74
2022/11/07 01:59:51;;;;;;;6.60;3.13;;;;;;;1.40;100.00;100946.27;1685893;85;21000;-74
2022/11/07 02:02:18;;;;;;;4.90;3.33;;;;;;;1.38;100.00;100942.39;1670922;86;21078;-74
2022/11/07 02:04:45;;;;;;;5.13;3.20;;;;;;;1.36;100.00;100942.92;1685933;85;21521;-73
2022/11/07 02:07:18;;;;;;;5.53;3.67;;;;;;;1.32;100.00;100942.25;1663471;85;21124;-73
2022/11/07 02:09:46;;;;;;;5.20;3.20;;;;;;;1.33;100.00;100933.32;1671349;86;21062;-74
2022/11/07 02:12:13;;;;;;;5.77;3.60;;;;;;;1.36;100.00;100930.09;1686550;85;20981;-73
2022/11/07 02:14:43;;;;;;;6.53;3.80;;;;;;;1.37;100.00;100928.67;1671267;86;21061;-73
2022/11/07 02:17:11;;;;;;;9.07;4.37;;;;;;;1.36;100.00;100936.75;1686630;85;21024;-73
2022/11/07 02:19:51;;;;;;;8.73;4.50;;;;;;;1.37;100.00;100931.81;1671328;86;21058;-74
2022/11/07 02:22:39;;;;;;;9.47;4.63;;;;;;;1.37;100.00;100932.66;1687335;85;20993;-73
2022/11/07 02:25:09;;;;;;;7.83;4.30;;;;;;;1.37;100.00;100940.66;1688094;85;20988;-74
2022/11/07 02:27:36;;;;;;;7.30;4.30;;;;;;;1.40;100.00;100935.16;1673660;86;21030;-74
2022/11/07 02:30:13;;;;;;;7.43;3.73;;;;;;;1.41;100.00;100937.34;1687069;85;21053;-73
2022/11/07 02:32:40;;;;;;;6.17;3.87;;;;;;;1.44;100.00;100943.83;1671418;86;21066;-73
2022/11/07 02:35:29;;;;;;;7.67;3.40;;;;;;;1.44;100.00;100936.69;1669286;86;21519;-73
2022/11/07 02:37:56;;;;;;;6.43;3.80;;;;;;;1.47;100.00;100935.63;1669586;86;21046;-74
2022/11/07 02:40:22;;;;;;;5.93;3.30;;;;;;;1.50;100.00;100937.64;1651305;87;21648;-74
2022/11/07 02:42:49;;;;;;;5.97;3.53;;;;;;;1.49;100.00;100942.61;1651613;87;21019;-75
2022/11/07 02:45:26;;;;;;;5.20;3.53;;;;;;;1.50;100.00;100933.64;1651614;87;21125;-73
2022/11/07 02:47:56;;;;;;;6.43;4.23;;;;;;;1.51;100.00;100921.20;1651446;87;21099;-73
2022/11/07 02:50:23;;;;;;;6.23;3.77;;;;;;;1.50;100.00;100923.46;1651809;87;21066;-76
2022/11/07 02:52:50;;;;;;;4.43;3.17;;;;;;;1.46;100.00;100934.78;1652875;87;21089;-74
2022/11/07 02:55:16;;;;;;;4.70;3.13;;;;;;;1.45;100.00;100925.54;1649189;87;21098;-74
2022/11/07 02:57:43;;;;;;;4.73;3.10;;;;;;;1.45;100.00;100922.88;1637744;87;21102;-73
2022/11/07 03:00:11;;;;;;;4.80;3.17;;;;;;;1.45;100.00;100922.88;1636786;88;21097;-75
2022/11/07 03:02:39;;;;;;;4.73;3.30;;;;;;;1.44;100.00;100923.36;1632693;87;20993;-74
2022/11/07 03:05:07;;;;;;;5.00;3.40;;;;;;;1.42;100.00;100925.27;1621585;88;21151;-75
2022/11/07 03:07:33;;;;;;;6.30;3.80;;;;;;;1.41;100.00;100926.20;1621542;88;21171;-72
2022/11/07 03:10:01;;;;;;;5.87;3.40;;;;;;;1.41;100.00;100924.02;1621447;88;21096;-73
2022/11/07 03:12:28;;;;;;;7.50;3.80;;;;;;;1.38;100.00;100921.07;1621319;88;21085;-75
2022/11/07 03:14:55;;;;;;;6.17;3.40;;;;;;;1.36;100.00;100921.61;1622079;88;21622;-74
2022/11/07 03:17:21;;;;;;;3.80;2.83;;;;;;;1.36;100.00;100922.94;1621570;88;21064;-74
2022/11/07 03:19:49;;;;;;;4.27;3.30;;;;;;;1.38;100.00;100920.19;1657612;86;21102;-74
2022/11/07 03:22:16;;;;;;;4.47;3.00;;;;;;;1.38;100.00;100922.41;1657815;86;21031;-73
2022/11/07 03:24:43;;;;;;;6.33;2.90;;;;;;;1.37;100.00;100919.34;1658426;86;21020;-74
2022/11/07 03:27:09;;;;;;;6.80;3.90;;;;;;;1.38;100.00;100914.86;1657868;86;21023;-73
2022/11/07 03:29:36;;;;;;;3.80;3.10;;;;;;;1.39;100.00;100910.77;1672348;85;21051;-74
2022/11/07 03:32:03;;;;;;;6.37;3.30;;;;;;;1.39;100.00;100910.77;1681694;85;21058;-72
2022/11/07 03:34:30;;;;;;;4.73;3.20;;;;;;;1.37;100.00;100914.49;1681548;85;21505;-72
2022/11/07 03:36:56;;;;;;;6.13;3.00;;;;;;;1.38;100.00;100913.08;1683807;85;21042;-73
2022/11/07 03:39:24;;;;;;;4.03;2.83;;;;;;;1.37;100.00;100912.68;1683447;85;21068;-73
2022/11/07 03:41:51;;;;;;;3.70;2.90;;;;;;;1.38;100.00;100914.41;1683616;85;21058;-73
2022/11/07 03:44:17;;;;;;;6.03;3.27;;;;;;;1.40;100.00;100912.95;1682443;85;21055;-73
2022/11/07 03:46:44;;;;;;;7.10;3.10;;;;;;;1.42;100.00;100909.75;1682495;85;21070;-72
2022/11/07 03:49:11;;;;;;;4.13;2.73;;;;;;;1.41;100.00;100914.69;1681732;85;21113;-74
2022/11/07 03:51:38;;;;;;;4.67;3.00;;;;;;;1.43;100.00;100910.12;1682496;85;21055;-73
2022/11/07 03:54:04;;;;;;;6.33;3.17;;;;;;;1.42;100.00;100899.94;1681757;85;21062;-73
2022/11/07 03:56:31;;;;;;;4.60;3.17;;;;;;;1.40;100.00;100904.51;1684636;83;21093;-74
2022/11/07 03:58:58;;;;;;;5.47;3.33;;;;;;;1.41;100.00;100893.36;1716984;83;21009;-74
2022/11/07 04:01:25;;;;;;;5.30;3.07;;;;;;;1.39;100.00;100896.12;1716629;83;21031;-72
2022/11/07 04:03:52;;;;;;;5.37;3.30;;;;;;;1.38;100.00;100889.55;1736498;82;20986;-73
2022/11/07 04:06:19;;;;;;;6.27;3.17;;;;;;;1.37;100.00;100895.36;1741461;82;20974;-73
2022/11/07 04:08:46;;;;;;;5.27;3.23;;;;;;;1.37;100.00;100892.69;1741090;82;20963;-75
2022/11/07 04:17:17;;;;;;;5.90;2.83;;;;;;;1.36;100.00;100896.29;1741068;82;20986;-72
2022/11/07 04:19:04;;;;;;;6.03;3.17;;;;;;;1.30;100.00;100893.52;1609528;88;21090;-74
2022/11/07 04:21:31;;;;;;;6.47;3.20;;;;;;;1.30;100.00;100891.34;1627638;88;21578;-74
2022/11/07 04:23:59;;;;;;;5.67;3.30;;;;;;;1.29;100.00;100893.16;1627849;88;21022;-73
2022/11/07 04:29:11;;;;;;;6.03;3.47;;;;;;;1.34;100.00;100895.53;1627562;87;21010;-75
2022/11/07 04:31:38;;;;;;;5.20;3.30;;;;;;;1.35;100.00;100889.27;1628070;87;21069;-74
2022/11/07 04:34:06;;;;;;;5.57;3.47;;;;;;;1.37;100.00;100886.03;1627397;87;21075;-73
2022/11/07 04:36:35;;;;;;;4.97;3.07;;;;;;;1.38;100.00;100885.55;1627493;87;21107;-72
2022/11/07 04:39:01;;;;;;;5.67;3.27;;;;;;;1.38;100.00;100891.75;1627404;88;21054;-72
2022/11/07 04:41:29;;;;;;;5.40;3.37;;;;;;;1.40;100.00;100887.19;1627342;88;21092;-74
2022/11/07 04:43:56;;;;;;;7.17;3.23;;;;;;;1.40;100.00;100887.64;1627385;88;21014;-74
2022/11/07 04:46:26;;;;;;;5.67;3.13;;;;;;;1.41;100.00;100888.03;1627229;88;21158;-73
2022/11/07 04:48:52;;;;;;;5.90;3.47;;;;;;;1.38;100.00;100886.88;1627361;88;21051;-75
2022/11/07 04:51:20;;;;;;;6.90;3.50;;;;;;;1.38;100.00;100888.20;1627699;88;21544;-74
2022/11/07 04:53:47;;;;;;;6.40;3.73;;;;;;;1.38;100.00;100890.87;1698450;84;21552;-73
2022/11/07 04:56:14;;;;;;;8.00;3.90;;;;;;;1.38;100.00;100894.87;1716768;83;20968;-75
2022/11/07 04:58:41;;;;;;;6.93;3.50;;;;;;;1.38;100.00;100899.75;1722586;83;21089;-73
2022/11/07 05:01:08;;;;;;;6.50;3.50;;;;;;;1.39;100.00;100897.45;1723005;83;21066;-74
2022/11/07 05:03:34;;;;;;;8.23;3.40;;;;;;;1.39;100.00;100897.45;1734616;82;20994;-72
2022/11/07 05:06:03;;;;;;;5.13;3.70;;;;;;;1.41;100.00;100899.55;1740966;82;21527;-74
2022/11/07 05:08:30;;;;;;;5.87;3.63;;;;;;;1.43;100.00;100894.13;1741110;82;21014;-74
2022/11/07 05:10:57;;;;;;;6.93;3.63;;;;;;;1.41;100.00;100894.22;1740851;82;21002;-75
2022/11/07 05:13:23;;;;;;;5.03;3.37;;;;;;;1.41;100.00;100896.88;1740395;82;21005;-75
2022/11/07 05:15:50;;;;;;;5.37;3.33;;;;;;;1.41;100.00;100892.88;1740835;82;20993;-76
2022/11/07 05:18:19;;;;;;;7.10;3.70;;;;;;;1.43;100.00;100898.13;1719937;82;20970;-73
2022/11/07 05:20:45;;;;;;;8.53;4.03;;;;;;;1.43;100.00;100902.97;1740647;81;21004;-74
2022/11/07 05:23:14;;;;;;;6.63;3.93;;;;;;;1.42;100.00;100908.42;1740962;82;21017;-74
2022/11/07 05:25:42;;;;;;;7.63;3.80;;;;;;;1.44;100.00;100915.84;1740905;82;21005;-75
2022/11/07 05:28:10;;;;;;;4.37;3.57;;;;;;;1.44;100.00;100914.03;1740865;82;21085;-75
2022/11/07 05:30:41;;;;;;;5.10;3.53;;;;;;;1.43;100.00;100906.97;1740838;82;20970;-74
2022/11/07 05:33:09;;;;;;;5.83;3.43;;;;;;;1.41;100.00;100905.36;1741012;82;21037;-75
2022/11/07 05:35:37;;;;;;;4.87;3.67;;;;;;;1.41;100.00;100907.54;1740412;82;21065;-75
2022/11/07 05:38:04;;;;;;;5.43;3.60;;;;;;;1.43;100.00;100909.63;1740811;82;20975;-75
2022/11/07 05:40:31;;;;;;;9.50;3.90;;;;;;;1.44;100.00;100908.70;1719014;82;21041;-73
2022/11/07 05:43:00;;;;;;;6.97;4.20;;;;;;;1.46;100.00;100908.13;1719930;82;21042;-74
2022/11/07 05:45:29;;;;;;;7.33;3.97;;;;;;;1.49;100.00;100907.10;1741414;82;21025;-74
2022/11/07 05:48:00;;;;;;;11.27;5.30;;;;;;;1.50;100.00;100909.66;1660100;86;21079;-74
2022/11/07 05:50:27;;;;;;;12.07;6.13;;;;;;;1.56;100.00;100904.91;1660581;86;21537;-75
2022/11/07 05:52:56;;;;;;;12.47;5.40;;;;;;;1.57;100.00;100909.30;1660999;85;21096;-74
2022/11/07 05:55:23;;;;;;;10.37;4.90;;;;;;;1.59;100.00;100913.58;1661470;86;21159;-75
2022/11/07 05:57:50;;;;;;;11.70;6.03;;;;;;;1.63;100.00;100915.58;1661223;86;21083;-73
2022/11/07 06:00:17;;;;;;;15.60;6.23;;;;;;;1.67;100.00;100918.47;1661059;86;21643;-74
2022/11/07 06:02:55;;;;;;;11.80;4.80;;;;;;;1.71;100.00;100915.98;1666532;85;21036;-74
2022/11/07 06:05:21;;;;;;;14.17;5.80;;;;;;;1.75;100.00;100920.66;1624863;87;21191;-73
2022/11/07 06:07:49;;;;;;;8.73;4.97;;;;;;;1.78;100.00;100916.00;1625748;87;21102;-74
2022/11/07 06:10:18;;;;;;;12.30;4.87;;;;;;;1.79;100.00;100923.52;1638960;87;21059;-74
2022/11/07 06:12:45;;;;;;;10.00;4.70;;;;;;;1.76;100.00;100920.58;1629836;87;21055;-74
2022/11/07 06:15:12;;;;;;;13.23;5.50;;;;;;;1.79;100.00;100923.06;1628964;88;21150;-75
2022/11/07 06:17:42;;;;;;;9.90;5.00;;;;;;;1.78;100.00;100917.81;1627303;88;21118;-74
2022/11/07 06:20:10;;;;;;;14.07;5.50;;;;;;;1.79;100.00;100916.84;1629449;87;21039;-74
2022/11/07 06:22:38;;;;;;;11.83;4.77;;;;;;;1.80;100.00;100914.58;1632858;87;21084;-75
2022/11/07 06:25:05;;;;;;;9.07;4.60;;;;;;;1.80;100.00;100903.42;1621589;87;21007;-74
2022/11/07 06:27:33;;;;;;;11.93;5.73;;;;;;;1.80;100.00;100907.42;1624588;87;21093;-73
2022/11/07 06:30:00;;;;;;;12.17;4.97;;;;;;;1.83;100.00;100907.25;1624647;87;21061;-75
2022/11/07 06:32:27;;;;;;;9.67;4.77;;;;;;;1.87;100.00;100902.09;1617487;87;21201;-76
2022/11/07 06:34:54;;;;;;;7.10;4.37;;;;;;;1.92;100.00;100903.64;1632120;87;21023;-76
2022/11/07 06:37:21;;;;;;;8.20;4.20;;;;;;;1.93;100.00;100895.55;1639856;87;21042;-76
2022/11/07 06:39:48;;;;;;;7.47;4.50;;;;;;;1.95;100.00;100896.77;1624881;87;21583;-78
2022/11/07 06:42:15;;;;;;;12.40;4.53;;;;;;;1.95;100.00;100894.98;1627668;87;21043;-77
2022/11/07 06:44:42;;;;;;;8.93;4.53;;;;;;;1.93;100.00;100892.00;1660581;85;21046;-76
2022/11/07 06:47:10;;;;;;;10.80;5.30;;;;;;;1.93;100.00;100886.22;1686143;85;21038;-74
2022/11/07 06:49:37;;;;;;;7.40;4.50;;;;;;;1.97;100.00;100889.06;1676408;83;21018;-77
2022/11/07 06:52:04;;;;;;;6.40;3.90;;;;;;;1.99;100.00;100883.16;1650856;86;21030;-77
2022/11/07 06:54:31;;;;;;;8.53;4.30;;;;;;;2.04;100.00;100882.88;1659665;86;21509;-75
2022/11/07 06:56:58;;;;;;;8.23;4.27;;;;;;;2.11;100.00;100877.54;1659331;86;21043;-74
2022/11/07 06:59:25;;;;;;;6.27;3.77;;;;;;;2.13;100.00;100878.30;1629883;85;21048;-74
2022/11/07 07:01:52;;;;;;;6.33;3.50;;;;;;;2.19;100.00;100879.23;1683317;84;21548;-77
2022/11/07 07:04:19;;;;;;;7.80;4.40;;;;;;;2.27;100.00;100884.11;1688559;84;21086;-77
2022/11/07 07:06:46;;;;;;;8.23;4.70;;;;;;;2.34;100.00;100880.55;1702674;84;21011;-76
2022/11/07 07:09:15;;;;;;;9.00;3.80;;;;;;;2.38;100.00;100875.41;1725541;82;21042;-76
2022/11/07 07:11:44;;;;;;;8.33;4.43;;;;;;;2.42;100.00;100887.59;1734544;83;21046;-81
2022/11/07 07:14:11;;;;;;;8.07;3.70;;;;;;;2.42;100.00;100887.59;1735710;82;21019;-73
2022/11/07 07:16:38;;;;;;;4.87;3.50;;;;;;;2.39;100.00;100884.66;1735207;83;21054;-82
2022/11/07 07:19:05;;;;;;;5.27;3.60;;;;;;;2.39;100.00;100888.66;1704330;83;21015;-74
2022/11/07 07:21:32;;;;;;;5.93;3.87;;;;;;;2.41;100.00;100888.09;1698897;84;21058;-75
2022/11/07 07:24:01;;;;;;;5.10;3.63;;;;;;;2.42;100.00;100885.78;1700012;83;21061;-86
2022/11/07 07:26:29;;;;;;;7.17;3.77;;;;;;;2.46;100.00;100885.98;1699955;84;21066;-75
2022/11/07 07:28:56;;;;;;;17.40;7.67;;;;;;;2.54;100.00;100889.48;1699928;83;21524;-79
2022/11/07 07:31:28;;;;;;;11.13;4.50;;;;;;;2.62;100.00;100891.65;1700276;84;21210;-75
2022/11/07 07:33:55;;;;;;;5.13;3.47;;;;;;;2.69;100.00;100895.63;1700576;84;21010;-75
2022/11/07 07:36:21;;;;;;;6.53;3.20;;;;;;;2.69;100.00;100892.97;1705636;84;21527;-70
2022/11/07 07:38:49;;;;;;;5.53;2.93;;;;;;;2.70;100.00;100896.52;1707014;84;21084;-74
2022/11/07 07:41:16;;;;;;;5.97;3.33;;;;;;;2.77;100.00;100891.16;1709636;84;21476;-74
2022/11/07 07:43:43;;;;;;;8.83;3.70;;;;;;;2.86;100.00;100891.88;1704764;84;21018;-76
2022/11/07 07:46:14;;;;;;;6.67;3.77;;;;;;;2.94;100.00;100894.03;1705377;84;21078;-71
2022/11/07 07:48:41;;;;;;;5.97;3.23;;;;;;;2.98;100.00;100887.06;1703750;84;21030;-70
2022/11/07 07:51:08;;;;;;;4.57;3.03;;;;;;;3.03;100.00;100892.12;1703789;84;21031;-75
2022/11/07 07:53:35;;;;;;;5.53;3.40;;;;;;;3.01;100.00;100890.00;1702616;84;21018;-73
2022/11/07 07:56:04;;;;;;;6.90;3.50;;;;;;;3.00;100.00;100892.31;1699575;84;21499;-75
2022/11/07 07:58:33;;;;;;;6.47;3.70;;;;;;;2.99;100.00;100895.93;1714322;83;21037;-77
2022/11/07 08:01:02;;;;;;;6.53;3.73;;;;;;;3.01;100.00;100892.22;1729537;83;21045;-75
2022/11/07 08:03:29;;;;;;;8.70;3.70;;;;;;;3.07;100.00;100897.63;1735781;82;20985;-74
2022/11/07 08:05:57;;;;;;;7.93;4.47;;;;;;;3.12;100.00;100888.83;1733478;82;21017;-74
2022/11/07 08:08:25;;;;;;;10.37;5.20;;;;;;;3.19;100.00;100890.61;1732597;82;21045;-72
2022/11/07 08:13:24;;;;;;;9.10;4.27;;;;;;;3.41;100.00;100881.50;1681664;85;21063;-74
2022/11/07 08:15:51;;;;;;;8.80;4.07;;;;;;;3.56;100.00;100882.75;1677426;85;20988;-73
2022/11/07 08:18:20;;;;;;;14.40;4.70;;;;;;;3.64;100.00;100874.22;1638100;86;21057;-74
2022/11/07 08:20:51;;;;;;;8.87;4.40;;;;;;;3.68;100.00;100877.05;1627600;88;21591;-74
2022/11/07 08:23:40;;;;;;;;;;;;;;;;;;;;;
2022/11/07 08:26:07;;;;;;;11.67;4.47;;;;;;;3.79;100.00;100871.83;1612980;87;20998;-73
2022/11/07 08:28:34;;;;;;;18.33;7.27;;;;;;;3.85;100.00;100870.05;1614872;88;21045;-72
2022/11/07 08:31:08;;;;;;;21.23;7.33;;;;;;;3.92;100.00;100874.00;1614877;87;21089;-76
2022/11/07 08:33:37;;;;;;;5.53;3.60;;;;;;;4.10;100.00;100876.34;1617433;88;21137;-74
2022/11/07 08:36:05;;;;;;;7.17;4.27;;;;;;;4.25;100.00;100869.03;1611585;88;21080;-72
2022/11/07 08:38:34;;;;;;;4.87;3.37;;;;;;;4.27;100.00;100874.66;1607581;88;21573;-73
2022/11/07 08:41:01;;;;;;;7.43;3.83;;;;;;;4.29;100.00;100883.92;1621458;88;21083;-73
2022/11/07 08:43:28;;;;;;;4.83;3.60;;;;;;;4.31;100.00;100879.31;1620374;88;21086;-74
2022/11/07 08:45:55;;;;;;;8.47;4.60;;;;;;;4.29;100.00;100885.27;1608409;88;21037;-74
2022/11/07 08:48:22;;;;;;;8.00;4.30;;;;;;;4.32;100.00;100886.36;1601622;88;21063;-72
2022/11/07 08:51:01;;;;;;;8.63;3.97;;;;;;;4.42;100.00;100887.42;1603963;89;21095;-73
2022/11/07 08:53:28;;;;;;;14.37;4.93;;;;;;;4.49;100.00;100890.02;1600789;89;21032;-72
2022/11/07 08:56:05;;;;;;;6.77;3.83;;;;;;;4.43;100.00;100894.99;1625861;88;21575;-70
2022/11/07 08:58:33;;;;;;;9.20;4.17;;;;;;;4.30;100.00;100892.31;1502222;93;21275;-78
2022/11/07 09:01:13;;;;;;;4.97;3.30;;;;;;;4.29;100.00;100894.14;1504431;95;21121;-79
2022/11/07 09:03:48;;;;;;;17.17;6.47;;;;;;;4.58;100.00;100892.52;1480480;96;21076;-73
2022/11/07 09:06:17;;;;;;;8.90;4.50;;;;;;;4.94;100.00;100884.95;1447669;99;21152;-72
2022/11/07 09:08:44;;;;;;;15.20;4.40;;;;;;;5.19;100.00;100884.92;1449351;98;21119;-71
2022/11/07 09:11:14;;;;;;;7.37;4.30;;;;;;;5.23;100.00;100887.27;1476556;96;21049;-78
2022/11/07 09:13:40;;;;;;;7.03;3.63;;;;;;;5.29;100.00;100889.50;1487627;96;21092;-78
2022/11/07 09:16:07;;;;;;;12.67;4.33;;;;;;;5.39;100.00;100892.82;1494060;94;21065;-80
2022/11/07 09:18:35;;;;;;;8.87;4.50;;;;;;;5.45;100.00;100898.58;1511725;94;21089;-76
2022/11/07 09:21:02;;;;;;;8.87;4.50;;;;;;;5.52;100.00;100896.26;1511711;95;21113;-77
2022/11/07 09:23:29;;;;;;;5.13;3.40;;;;;;;5.74;100.00;100897.28;1491790;95;21160;-76
2022/11/07 09:26:00;;;;;;;5.83;3.83;;;;;;;5.93;100.00;100885.48;1505642;95;21041;-75
2022/11/07 09:28:27;;;;;;;6.73;3.70;;;;;;;6.08;100.00;100885.66;1499589;95;21675;-76
2022/11/07 09:30:56;;;;;;;8.33;4.30;;;;;;;6.35;100.00;100881.75;1498262;94;21098;-80
2022/11/07 09:33:25;;;;;;;9.30;4.60;;;;;;;6.60;100.00;100881.11;1508518;94;21127;-82
2022/11/07 09:36:22;;;;;;;12.17;4.93;;;;;;;6.76;100.00;100886.93;1553451;92;21632;-78
2022/11/07 09:38:59;;;;;;;7.67;4.23;;;;;;;6.96;100.00;100897.41;1528351;92;21077;-79
2022/11/07 09:41:52;;;;;;;8.40;4.50;;;;;;;7.17;100.00;100896.12;1548084;91;21508;-77
2022/11/07 09:44:57;;;;;;;5.08;3.37;;;;;;;7.19;100.00;100906.26;1550650;91;21129;-79
2022/11/07 09:47:29;;;;;;;6.57;3.33;;;;;;;7.02;100.00;100918.90;1549949;91;21064;-76
2022/11/07 09:49:59;;;;;;;4.77;3.30;;;;;;;6.88;100.00;100917.84;1551175;91;21146;-80
2022/11/07 09:52:50;;;;;;;7.13;3.73;;;;;;;6.81;100.00;100911.60;1559177;91;21540;-74
2022/11/07 09:55:33;;;;;;;4.40;3.30;;;;;;;6.77;100.00;100910.66;1593765;87;21067;-77
2022/11/07 09:58:03;;;;;;;5.87;3.40;;;;;;;6.75;100.00;100906.75;1653091;86;21694;-76
2022/11/07 10:00:30;;;;;;;6.77;3.57;;;;;;;6.72;100.00;100908.33;1652364;87;21073;-81
2022/11/07 10:03:00;;;;;;;7.47;3.70;;;;;;;6.78;100.00;100908.31;1650835;85;21338;-79
2022/11/07 10:05:47;;;;;;;7.17;3.83;;;;;;;7.03;100.00;100900.45;1655650;85;20997;-82
2022/11/07 10:08:31;;;;;;;6.53;3.53;;;;;;;7.41;100.00;100902.61;1654145;87;20982;-83
2022/11/07 10:10:59;;;;;;;5.93;3.53;;;;;;;7.76;100.00;100891.18;1652293;87;21058;-77
2022/11/07 10:13:58;;;;;;;5.43;4.07;;;;;;;7.94;100.00;100897.66;1656254;86;21034;-87
2022/11/07 10:16:47;;;;;;;7.63;4.20;;;;;;;8.04;100.00;100894.16;1566481;89;21137;-80
2022/11/07 10:19:35;;;;;;;7.40;3.80;;;;;;;8.20;100.00;100891.84;1600152;89;21531;-84
2022/11/07 10:22:31;;;;;;;6.03;3.53;;;;;;;8.28;100.00;100892.00;1540682;92;21070;-79
2022/11/07 10:25:28;;;;;;;13.27;5.73;;;;;;;8.45;100.00;100891.06;1524630;94;21171;-80
2022/11/07 10:28:10;;;;;;;6.17;3.93;;;;;;;8.63;100.00;100888.55;1526757;92;21160;-80
2022/11/07 10:30:37;;;;;;;7.57;3.90;;;;;;;8.71;100.00;100892.74;1527159;92;21097;-80
2022/11/07 10:33:25;;;;;;;10.73;4.80;;;;;;;8.85;100.00;100895.55;1539078;92;21066;-82
2022/11/07 10:35:57;;;;;;;13.70;6.87;;;;;;;8.89;100.00;100896.49;1501196;96;21098;-76
2022/11/07 10:38:29;;;;;;;13.85;6.37;;;;;;;8.96;100.00;100884.66;1476062;96;21154;-79
2022/11/07 10:40:56;;;;;;;9.30;4.80;;;;;;;9.07;100.00;100888.56;1468820;97;21148;-74
2022/11/07 10:43:32;;;;;;;9.90;4.07;;;;;;;9.04;100.00;100895.58;1458870;98;21201;-81
2022/11/07 10:46:07;;;;;;;6.58;4.10;;;;;;;9.02;100.00;100892.17;1459344;98;21149;-75
2022/11/07 10:48:36;;;;;;;10.47;4.40;;;;;;;8.94;100.00;100890.66;1458764;98;21082;-74
2022/11/07 10:51:03;;;;;;;7.90;4.00;;;;;;;8.81;100.00;100889.58;1471636;96;21114;-78
2022/11/07 10:53:30;;;;;;;7.55;3.90;;;;;;;8.77;100.00;100896.25;1505727;94;21040;-81
2022/11/07 10:55:58;;;;;;;5.87;3.52;;;;;;;8.84;100.00;100889.81;1533198;93;21624;-80
2022/11/07 10:58:32;;;;;;;5.28;3.20;;;;;;;8.90;100.00;100890.59;1528631;93;21470;-83
2022/11/07 11:01:08;;;;;;;6.40;3.17;;;;;;;9.00;100.00;100884.72;1418720;101;21245;-83
2022/11/07 11:03:45;;;;;;;5.42;3.25;;;;;;;9.07;100.00;100887.72;1445549;98;21167;-77
2022/11/07 11:06:22;;;;;;;14.35;4.70;;;;;;;9.11;100.00;100884.58;1402378;102;21191;-86
2022/11/07 11:08:50;;;;;;;4.78;3.50;;;;;;;9.13;100.00;100877.70;1409509;101;21311;-81
2022/11/07 11:11:32;;;;;;;7.30;3.77;;;;;;;9.24;100.00;100880.75;1409877;100;21237;-81
2022/11/07 11:14:12;;;;;;;9.83;5.20;;;;;;;9.32;100.00;100875.50;1391550;102;21109;-81
2022/11/07 11:16:40;;;;;;;9.85;4.42;;;;;;;9.39;100.00;100875.28;1439446;98;21149;-82
2022/11/07 11:19:23;;;;;;;18.75;7.60;;;;;;;9.48;100.00;100874.42;1447864;99;21401;-80
2022/11/07 11:21:54;;;;;;;12.23;6.20;;;;;;;9.60;100.00;100874.28;1425957;100;21058;-81
2022/11/07 11:24:38;;;;;;;9.28;4.53;;;;;;;9.68;100.00;100876.62;1421030;101;21224;-78
2022/11/07 11:27:21;;;;;;;7.40;3.87;;;;;;;9.73;100.00;100873.46;1421113;101;21137;-84
2022/11/07 11:29:57;;;;;;;6.97;4.20;;;;;;;9.79;100.00;100877.42;1423809;100;21171;-81
2022/11/07 11:32:34;;;;;;;6.00;3.72;;;;;;;9.84;100.00;100880.55;1422252;98;21092;-82
2022/11/07 11:35:40;;;;;;;7.25;4.20;;;;;;;9.86;100.00;100882.13;1441098;97;21151;-74
2022/11/07 11:38:22;;;;;;;28.42;11.75;;;;;;;9.83;100.00;100878.86;1469844;95;21004;-84
2022/11/07 11:41:03;;;;;;;18.23;7.15;;;;;;;9.64;100.00;100877.88;1480188;96;21071;-79
2022/11/07 11:43:42;;;;;;;12.55;5.62;;;;;;;9.62;100.00;100870.94;1467961;97;21156;-83
2022/11/07 11:46:32;;;;;;;15.68;5.60;;;;;;;9.50;100.00;100877.83;1423857;101;21626;-77
2022/11/07 11:49:22;;;;;;;14.58;5.72;;;;;;;9.46;100.00;100876.92;1406186;101;21117;-77
2022/11/07 11:51:58;;;;;;;8.65;4.62;;;;;;;9.29;100.00;100873.08;1379233;102;21183;-77
2022/11/07 11:54:25;;;;;;;11.50;5.47;;;;;;;9.29;100.00;100871.73;1389686;102;21167;-76